Estación Meteorológica Peña el Pijo (Robertgarden) [ 12/10/18 11:45:01 CET ]

Fecha Hora Presion(HPa) Temp (°C) Humedad % Rocio (°C) Viento ( m/s) Direccion Lluvia 1Hora(mm) Lluvia 24H(mm) LLuvia Total(mm)
2018-Oct-30 01:01:41 996.500 4.9 63 -1.6         91.16
2018-Oct-30 02:01:44 996.100 5.1 65 -1.0         91.16
2018-Oct-30 03:01:44 996.000 5.1 65 -1.0         91.16
2018-Oct-30 04:04:13 996.100 4.9 67 -0.7         91.16
2018-Oct-30 05:01:58 995.800 4.8 69 -0.4         91.16
2018-Oct-30 06:01:48 995.900 4.9 71 0.1         91.16
2018-Oct-30 07:01:47 995.400 4.7 72 0.1         91.16
2018-Oct-30 08:01:48 995.300 4.9 73 0.4         91.16
2018-Oct-30 09:01:46 995.600 5.9 73 1.4         91.16
2018-Oct-30 10:01:53 995.700 6.7 72 2.0         91.16
2018-Oct-30 11:01:42 995.600 6.8 73 2.3 2.2 NE     91.16
2018-Oct-30 12:02:13 994.900 8.3 70 3.2         91.16
2018-Oct-30 13:01:52 994.100 9.5 62 2.6         91.16
2018-Oct-30 14:02:00 993.300 9.2 62 2.3         91.16
2018-Oct-30 15:01:46 993.100 9.1 63 2.4         91.16
2018-Oct-30 16:01:35 992.700 9.8 64 3.3         91.16
2018-Oct-30 17:01:57 992.200 9.6 68 4.0         91.16
2018-Oct-30 18:01:45 992.100 8.8 72 4.0         91.16
2018-Oct-30 19:01:52 992.500 7.8 74 3.5         91.16
2018-Oct-30 20:01:40 992.200 6.6 78 3.0         91.16
2018-Oct-30 21:01:45 992.100 6.4 80 3.2         91.16
2018-Oct-30 22:01:44 991.500 6.3 80 3.1         91.16
2018-Oct-30 23:01:37 992.000 5.6 81 2.6         91.16

Temperatura Máxima:    Temperatura Mínima:
Presión Máxima:996.500 Hpa    Presión Mínima:991.500 Hpa


Volver